createdAt,value
2023-03-08T00:00:38.230Z,6.00
2023-03-08T00:03:16.397Z,5.28
2023-03-08T00:05:44.788Z,7.57
2023-03-08T00:08:12.181Z,6.00
2023-03-08T00:10:39.211Z,7.43
2023-03-08T00:13:06.471Z,6.97
2023-03-08T00:15:33.469Z,7.05
2023-03-08T00:18:01.156Z,8.35
2023-03-08T00:20:28.213Z,8.18
2023-03-08T00:22:55.710Z,6.88
2023-03-08T00:25:22.654Z,5.20
2023-03-08T00:27:49.999Z,5.93
2023-03-08T00:30:17.424Z,6.70
2023-03-08T00:32:44.745Z,7.10
2023-03-08T00:35:11.694Z,5.32
2023-03-08T00:37:38.944Z,8.35
2023-03-08T00:40:06.633Z,7.47
2023-03-08T00:42:34.136Z,4.90
2023-03-08T00:45:01.089Z,6.25
2023-03-08T00:47:28.399Z,5.60
2023-03-08T00:49:55.386Z,7.60
2023-03-08T00:52:22.650Z,7.32
2023-03-08T00:54:49.579Z,6.07
2023-03-08T00:57:17.099Z,7.97
2023-03-08T00:59:44.068Z,7.80
2023-03-08T01:02:11.668Z,6.95
2023-03-08T01:04:38.620Z,6.63
2023-03-08T01:07:06.094Z,4.75
2023-03-08T01:09:33.125Z,5.88
2023-03-08T01:12:00.331Z,10.82
2023-03-08T01:14:27.434Z,9.85
2023-03-08T01:16:55.048Z,7.72
2023-03-08T01:19:22.007Z,6.40
2023-03-08T01:21:49.456Z,9.70
2023-03-08T01:24:16.468Z,7.68
2023-03-08T01:26:43.742Z,9.98
2023-03-08T01:29:10.681Z,11.80
2023-03-08T01:31:37.920Z,9.77
2023-03-08T01:34:04.855Z,9.70
2023-03-08T01:36:32.248Z,10.52
2023-03-08T01:39:01.496Z,11.25
2023-03-08T01:41:31.197Z,8.52
2023-03-08T01:43:58.724Z,9.38
2023-03-08T01:46:36.264Z,7.13
2023-03-08T01:49:14.890Z,9.52
2023-03-08T01:52:17.812Z,6.20
2023-03-08T01:54:48.403Z,9.27
2023-03-08T01:57:23.769Z,7.38
2023-03-08T01:59:51.771Z,5.40
2023-03-08T02:02:29.923Z,6.63
2023-03-08T02:04:57.046Z,8.60
2023-03-08T02:07:24.288Z,9.88
2023-03-08T02:09:51.358Z,11.40
2023-03-08T02:12:19.553Z,9.10
2023-03-08T02:14:46.581Z,7.53
2023-03-08T02:17:14.149Z,10.32
2023-03-08T02:19:49.867Z,12.75
2023-03-08T02:22:17.721Z,10.80
2023-03-08T02:24:44.692Z,11.88
2023-03-08T02:27:19.903Z,10.25
2023-03-08T02:29:47.178Z,8.57
2023-03-08T02:32:15.827Z,8.38
2023-03-08T02:34:43.231Z,8.32
2023-03-08T02:37:10.653Z,10.77
2023-03-08T02:39:37.752Z,7.90
2023-03-08T02:42:05.180Z,8.38
2023-03-08T02:44:32.102Z,10.70
2023-03-08T02:46:59.375Z,9.77
2023-03-08T02:49:26.318Z,8.93
2023-03-08T02:51:53.850Z,10.88
2023-03-08T02:54:20.956Z,10.40
2023-03-08T02:56:48.530Z,10.13
2023-03-08T02:59:15.543Z,8.57
2023-03-08T03:01:42.937Z,11.45
2023-03-08T03:04:10.056Z,7.47
2023-03-08T03:06:37.396Z,11.13
2023-03-08T03:09:10.577Z,9.98
2023-03-08T03:11:39.640Z,8.88
2023-03-08T03:14:07.193Z,16.83
2023-03-08T03:16:34.441Z,13.35
2023-03-08T03:19:01.388Z,12.82
2023-03-08T03:21:28.960Z,18.70
2023-03-08T03:23:56.221Z,11.98
2023-03-08T03:26:24.761Z,10.13
2023-03-08T03:28:52.543Z,11.55
2023-03-08T03:31:22.600Z,9.82
2023-03-08T03:33:50.165Z,10.15
2023-03-08T03:36:20.277Z,9.20
2023-03-08T03:38:47.746Z,11.70
2023-03-08T03:41:18.298Z,8.70
2023-03-08T03:43:45.996Z,11.57
2023-03-08T03:46:16.455Z,10.05
2023-03-08T03:48:43.923Z,9.60
2023-03-08T03:51:14.363Z,12.27
2023-03-08T03:53:41.998Z,14.15
2023-03-08T03:56:21.310Z,9.82
2023-03-08T03:58:48.697Z,8.73
2023-03-08T04:01:20.976Z,9.52
2023-03-08T04:03:49.218Z,7.82
2023-03-08T04:06:28.373Z,9.23
2023-03-08T04:09:00.773Z,16.08
2023-03-08T04:11:31.645Z,7.45
2023-03-08T04:13:58.673Z,15.13
2023-03-08T04:16:29.628Z,10.77
2023-03-08T04:18:59.258Z,10.93
2023-03-08T04:21:27.269Z,9.95
2023-03-08T04:23:54.647Z,8.80
2023-03-08T04:26:22.424Z,9.48
2023-03-08T04:28:49.463Z,13.75
2023-03-08T04:31:26.645Z,10.57
2023-03-08T04:33:54.671Z,8.10
2023-03-08T04:36:23.111Z,9.40
2023-03-08T04:38:51.197Z,11.95
2023-03-08T04:41:19.450Z,9.30
2023-03-08T04:43:51.998Z,7.90
2023-03-08T04:46:22.434Z,8.32
2023-03-08T04:48:52.814Z,10.25
2023-03-08T04:51:20.738Z,7.78
2023-03-08T04:53:47.813Z,9.77
2023-03-08T04:56:16.264Z,7.53
2023-03-08T04:58:43.795Z,8.60
2023-03-08T05:01:22.268Z,8.85
2023-03-08T05:03:49.874Z,6.35
2023-03-08T05:06:18.565Z,12.45
2023-03-08T05:08:45.954Z,8.10
2023-03-08T05:11:25.639Z,7.22
2023-03-08T05:13:57.548Z,7.43
2023-03-08T05:16:25.993Z,7.95
2023-03-08T05:18:53.321Z,7.43
2023-03-08T05:21:22.571Z,9.48
2023-03-08T05:23:49.880Z,7.03
2023-03-08T05:26:18.467Z,9.10
2023-03-08T05:28:45.524Z,9.23
2023-03-08T05:31:17.809Z,8.38
2023-03-08T05:33:46.653Z,8.47
2023-03-08T05:36:15.335Z,10.77
2023-03-08T05:38:43.067Z,8.57
2023-03-08T05:41:14.150Z,12.95
2023-03-08T05:43:41.690Z,11.50
2023-03-08T05:46:17.985Z,9.27
2023-03-08T05:48:45.612Z,8.10
2023-03-08T05:51:15.683Z,13.27
2023-03-08T05:53:43.290Z,8.45
2023-03-08T05:56:21.831Z,10.77
2023-03-08T05:58:49.391Z,11.55
2023-03-08T06:01:18.419Z,11.57
2023-03-08T06:03:46.802Z,13.25
2023-03-08T06:06:14.311Z,13.30
2023-03-08T06:08:42.066Z,14.10
2023-03-08T06:11:10.190Z,16.58
2023-03-08T06:13:37.632Z,16.90
2023-03-08T06:16:05.383Z,15.38
2023-03-08T06:18:32.692Z,20.40
2023-03-08T06:21:01.375Z,21.90
2023-03-08T06:23:30.127Z,16.85
2023-03-08T06:25:58.736Z,13.80
2023-03-08T06:28:27.384Z,15.18
2023-03-08T06:30:55.491Z,12.15
2023-03-08T06:33:25.450Z,8.10
2023-03-08T06:36:05.334Z,15.57
2023-03-08T06:38:34.957Z,13.18
2023-03-08T06:41:03.200Z,10.52
2023-03-08T06:43:30.494Z,9.40
2023-03-08T06:45:57.842Z,6.57
2023-03-08T06:48:24.926Z,6.05
2023-03-08T06:50:52.284Z,11.15
2023-03-08T06:53:19.823Z,9.52
2023-03-08T06:55:47.412Z,5.90
2023-03-08T06:58:14.533Z,5.28
2023-03-08T07:00:42.073Z,6.90
2023-03-08T07:03:10.276Z,9.65
2023-03-08T07:05:38.790Z,16.83
2023-03-08T07:08:06.448Z,15.90
2023-03-08T07:10:34.707Z,35.83
2023-03-08T07:13:01.797Z,30.15
2023-03-08T07:15:29.241Z,23.35
2023-03-08T07:17:58.279Z,9.60
2023-03-08T07:20:27.645Z,8.55
2023-03-08T07:22:54.697Z,10.35
2023-03-08T07:25:22.289Z,6.75
2023-03-08T07:27:49.489Z,5.25
2023-03-08T07:30:17.311Z,8.93
2023-03-08T07:32:44.630Z,9.15
2023-03-08T07:35:14.710Z,11.55
2023-03-08T07:37:45.116Z,7.95
2023-03-08T07:40:14.331Z,7.60
2023-03-08T07:42:41.464Z,9.18
2023-03-08T07:45:10.259Z,8.00
2023-03-08T07:47:37.303Z,5.60
2023-03-08T07:50:05.140Z,4.43
2023-03-08T07:52:32.225Z,8.27
2023-03-08T07:55:02.252Z,8.38
2023-03-08T07:57:29.269Z,9.30
2023-03-08T07:59:56.975Z,11.18
2023-03-08T08:02:24.114Z,7.93
2023-03-08T08:04:51.879Z,7.28
2023-03-08T08:07:19.135Z,9.70
2023-03-08T08:09:46.677Z,8.55
2023-03-08T08:12:14.143Z,8.43
2023-03-08T08:14:42.024Z,6.20
2023-03-08T08:17:09.272Z,5.28
2023-03-08T08:19:38.136Z,7.38
2023-03-08T08:22:06.102Z,5.85
2023-03-08T08:24:34.104Z,10.50
2023-03-08T08:27:01.234Z,5.57
2023-03-08T08:29:28.737Z,6.93
2023-03-08T08:31:56.976Z,5.53
2023-03-08T08:34:24.713Z,8.38
2023-03-08T08:36:51.878Z,6.95
2023-03-08T08:39:19.707Z,6.68
2023-03-08T08:41:49.695Z,7.25
2023-03-08T08:44:17.206Z,8.48
2023-03-08T08:46:44.304Z,11.20
2023-03-08T08:49:12.291Z,10.15
2023-03-08T08:51:39.538Z,6.90
2023-03-08T08:54:07.230Z,5.38
2023-03-08T08:56:34.659Z,9.73
2023-03-08T08:59:02.963Z,3.63
2023-03-08T09:01:32.979Z,6.38
2023-03-08T09:04:00.877Z,6.03
2023-03-08T09:06:29.300Z,18.45
2023-03-08T09:08:58.768Z,5.20
2023-03-08T09:11:27.521Z,6.10
2023-03-08T09:13:55.270Z,6.93
2023-03-08T09:16:27.038Z,6.15
2023-03-08T09:18:56.833Z,5.10
2023-03-08T09:21:25.590Z,6.50
2023-03-08T09:23:53.104Z,3.92
2023-03-08T09:26:20.351Z,4.85
2023-03-08T09:28:47.798Z,4.63
2023-03-08T09:31:16.962Z,8.07
2023-03-08T09:33:49.882Z,5.53
2023-03-08T09:36:17.164Z,5.87
2023-03-08T09:38:46.699Z,3.50
2023-03-08T09:41:13.804Z,3.78
2023-03-08T09:44:04.275Z,4.75
2023-03-08T09:46:38.401Z,4.63
2023-03-08T09:49:13.636Z,4.20
2023-03-08T09:51:45.452Z,6.57
2023-03-08T09:54:18.235Z,7.30
2023-03-08T09:56:56.533Z,8.38
2023-03-08T09:59:47.682Z,15.38
2023-03-08T10:02:26.261Z,9.98
2023-03-08T10:05:13.291Z,6.55
2023-03-08T10:08:07.378Z,5.55
2023-03-08T10:13:30.635Z,5.72
2023-03-08T10:16:10.792Z,7.10
2023-03-08T10:19:03.646Z,11.18
2023-03-08T10:21:36.820Z,6.60
2023-03-08T10:24:15.695Z,6.28
2023-03-08T10:26:45.570Z,4.40
2023-03-08T10:29:14.101Z,9.05
2023-03-08T10:31:44.124Z,5.80
2023-03-08T10:34:15.567Z,8.75
2023-03-08T10:37:00.135Z,5.80
2023-03-08T10:39:27.641Z,6.82
2023-03-08T10:42:00.564Z,9.05
2023-03-08T10:44:33.961Z,8.23
2023-03-08T10:47:04.682Z,6.85
2023-03-08T10:49:32.094Z,5.47
2023-03-08T10:52:01.353Z,6.60
2023-03-08T10:54:29.484Z,3.97
2023-03-08T10:57:02.181Z,7.10
2023-03-08T10:59:33.038Z,5.50
2023-03-08T11:02:18.699Z,4.45
2023-03-08T11:04:59.679Z,6.47
2023-03-08T11:07:30.794Z,10.48
2023-03-08T11:10:13.439Z,4.80
2023-03-08T11:12:41.811Z,5.38
2023-03-08T11:15:20.435Z,6.57
2023-03-08T11:18:17.823Z,7.88
2023-03-08T11:21:00.642Z,2.65
2023-03-08T11:24:05.433Z,6.13
2023-03-08T11:26:55.734Z,5.50
2023-03-08T11:29:35.878Z,7.60
2023-03-08T11:32:53.466Z,12.23
2023-03-08T11:35:29.694Z,3.95
2023-03-08T11:38:17.826Z,5.25
2023-03-08T11:41:09.208Z,4.97
2023-03-08T11:44:15.082Z,3.97
2023-03-08T11:46:54.437Z,6.20
2023-03-08T11:49:55.088Z,4.90
2023-03-08T11:52:41.858Z,4.25
2023-03-08T11:55:46.894Z,3.72
2023-03-08T11:58:23.118Z,4.60
2023-03-08T12:00:53.537Z,2.47
2023-03-08T12:03:26.613Z,2.28
2023-03-08T12:06:22.686Z,8.70
2023-03-08T12:09:08.155Z,4.93
2023-03-08T12:11:46.295Z,2.95
2023-03-08T12:14:19.370Z,5.20
2023-03-08T12:16:56.446Z,2.85
2023-03-08T12:19:51.644Z,15.73
2023-03-08T12:22:39.297Z,10.85
2023-03-08T12:25:22.044Z,13.10
2023-03-08T12:28:02.651Z,8.60
2023-03-08T12:30:38.974Z,5.20
2023-03-08T12:33:10.006Z,5.63
2023-03-08T12:35:49.986Z,5.80
2023-03-08T12:38:20.282Z,11.27
2023-03-08T12:40:55.306Z,14.35
2023-03-08T12:43:22.261Z,7.30
2023-03-08T12:46:10.292Z,11.63
2023-03-08T12:48:49.254Z,5.80
2023-03-08T12:51:21.957Z,7.63
2023-03-08T12:53:49.149Z,4.10
2023-03-08T12:56:29.929Z,4.55
2023-03-08T12:59:03.778Z,4.18
2023-03-08T13:01:56.978Z,3.65
2023-03-08T13:04:39.280Z,4.65
2023-03-08T13:07:29.355Z,4.22
2023-03-08T13:09:56.429Z,6.70
2023-03-08T13:12:50.326Z,7.13
2023-03-08T13:15:23.034Z,5.85
2023-03-08T13:18:00.915Z,5.72
2023-03-08T13:20:41.758Z,5.88
2023-03-08T13:23:16.177Z,4.90
2023-03-08T13:26:07.008Z,5.25
2023-03-08T13:28:48.116Z,10.18
2023-03-08T13:31:18.421Z,10.88
2023-03-08T13:33:52.764Z,10.07
2023-03-08T13:36:29.910Z,23.30
2023-03-08T13:39:01.677Z,10.80
2023-03-08T13:41:41.781Z,8.80
2023-03-08T13:44:18.100Z,11.07
2023-03-08T13:46:46.632Z,9.52
2023-03-08T13:49:23.629Z,5.15
2023-03-08T13:51:53.842Z,7.93
2023-03-08T13:54:50.457Z,8.38
2023-03-08T13:57:33.726Z,11.55
2023-03-08T14:00:16.954Z,15.70
2023-03-08T14:02:46.989Z,6.78
2023-03-08T14:05:23.934Z,6.78
2023-03-08T14:07:59.098Z,6.78
2023-03-08T14:10:32.621Z,6.05
2023-03-08T14:12:59.846Z,8.05
2023-03-08T14:15:27.356Z,3.90
2023-03-08T14:17:54.435Z,6.15
2023-03-08T14:20:24.052Z,4.75
2023-03-08T14:22:54.729Z,9.60
2023-03-08T14:25:24.110Z,3.78
2023-03-08T14:27:51.621Z,6.43
2023-03-08T14:30:22.817Z,8.45
2023-03-08T14:33:14.623Z,4.15
2023-03-08T14:35:52.012Z,6.65
2023-03-08T14:38:28.237Z,7.88
2023-03-08T14:40:56.514Z,8.07
2023-03-08T14:43:26.029Z,7.50
2023-03-08T14:46:00.992Z,3.78
2023-03-08T14:48:36.050Z,5.30
2023-03-08T14:51:31.172Z,6.93
2023-03-08T14:54:18.260Z,5.03
2023-03-08T14:56:46.882Z,7.18
2023-03-08T14:59:25.233Z,5.85
2023-03-08T15:01:54.870Z,4.88
2023-03-08T15:04:24.873Z,6.40
2023-03-08T15:06:54.609Z,10.35
2023-03-08T15:09:22.948Z,7.57
2023-03-08T15:11:52.770Z,8.82
2023-03-08T15:14:19.849Z,6.15
2023-03-08T15:16:47.457Z,15.38
2023-03-08T15:19:14.443Z,9.20
2023-03-08T15:21:42.256Z,12.05
2023-03-08T15:24:17.401Z,7.68
2023-03-08T15:26:45.840Z,14.55
2023-03-08T15:29:20.504Z,10.90
2023-03-08T15:31:48.016Z,11.02
2023-03-08T15:34:15.034Z,8.10
2023-03-08T15:36:42.406Z,9.32
2023-03-08T15:39:12.580Z,8.13
2023-03-08T15:41:40.494Z,11.57
2023-03-08T15:44:07.882Z,9.00
2023-03-08T15:46:35.576Z,11.63
2023-03-08T15:49:02.930Z,12.77
2023-03-08T15:51:33.301Z,11.40
2023-03-08T15:54:00.461Z,11.45
2023-03-08T15:56:28.382Z,10.63
2023-03-08T15:58:55.467Z,9.63
2023-03-08T16:01:25.552Z,7.18
2023-03-08T16:03:54.266Z,7.68
2023-03-08T16:06:22.609Z,6.53
2023-03-08T16:08:49.804Z,7.25
2023-03-08T16:11:22.314Z,9.25
2023-03-08T16:13:53.554Z,8.63
2023-03-08T16:16:27.617Z,8.90
2023-03-08T16:18:59.220Z,13.50
2023-03-08T16:21:27.109Z,10.32
2023-03-08T16:23:54.159Z,9.32
2023-03-08T16:26:21.937Z,8.32
2023-03-08T16:28:48.904Z,10.23
2023-03-08T16:31:19.800Z,10.82
2023-03-08T16:33:46.818Z,12.70
2023-03-08T16:36:14.507Z,11.20
2023-03-08T16:38:41.894Z,11.52
2023-03-08T16:41:13.289Z,14.23
2023-03-08T16:43:49.801Z,20.90
2023-03-08T16:46:22.268Z,22.00
2023-03-08T16:48:51.263Z,16.87
2023-03-08T16:51:20.304Z,15.32
2023-03-08T16:53:48.085Z,13.45
2023-03-08T16:56:26.656Z,21.52
2023-03-08T16:58:55.848Z,18.60
2023-03-08T17:01:23.902Z,29.40
2023-03-08T17:03:52.150Z,41.08
2023-03-08T17:06:22.731Z,34.60
2023-03-08T17:08:49.949Z,24.05
2023-03-08T17:11:19.369Z,20.83
2023-03-08T17:13:51.266Z,18.70
2023-03-08T17:16:31.859Z,28.80
2023-03-08T17:19:00.569Z,22.92
2023-03-08T17:21:29.416Z,23.42
2023-03-08T17:23:57.436Z,21.05
2023-03-08T17:26:25.072Z,18.38
2023-03-08T17:28:53.826Z,22.75
2023-03-08T17:31:23.286Z,30.27
2023-03-08T17:33:51.220Z,68.95
2023-03-08T17:36:19.464Z,47.03
2023-03-08T17:38:46.824Z,29.15
2023-03-08T17:41:16.044Z,30.52
2023-03-08T17:43:43.011Z,81.07
2023-03-08T17:46:28.770Z,80.13
2023-03-08T17:48:56.336Z,48.60
2023-03-08T17:51:27.347Z,37.35
2023-03-08T17:53:54.747Z,36.67
2023-03-08T17:56:26.468Z,31.05
2023-03-08T17:58:56.054Z,40.13
2023-03-08T18:01:25.851Z,31.38
2023-03-08T18:03:55.450Z,35.50
2023-03-08T18:06:28.245Z,22.27
2023-03-08T18:08:56.625Z,31.98
2023-03-08T18:11:25.088Z,21.42
2023-03-08T18:13:52.923Z,35.47
2023-03-08T18:16:21.917Z,23.92
2023-03-08T18:18:50.191Z,27.45
2023-03-08T18:21:18.903Z,63.05
2023-03-08T18:23:47.008Z,52.20
2023-03-08T18:26:18.644Z,75.32
2023-03-08T18:28:46.156Z,50.33
2023-03-08T18:31:21.010Z,36.47
2023-03-08T18:33:47.995Z,54.35
2023-03-08T18:36:16.265Z,45.10
2023-03-08T18:38:43.653Z,32.75
2023-03-08T18:41:16.502Z,33.95
2023-03-08T18:43:43.787Z,28.35
2023-03-08T18:46:13.020Z,25.77
2023-03-08T18:48:41.000Z,38.60
2023-03-08T18:51:08.290Z,34.40
2023-03-08T18:53:35.387Z,28.30
2023-03-08T18:56:04.704Z,27.40
2023-03-08T18:58:32.363Z,30.55
2023-03-08T19:01:02.917Z,70.03
2023-03-08T19:03:30.655Z,98.35
2023-03-08T19:06:02.580Z,178.73
2023-03-08T19:08:29.755Z,85.70
2023-03-08T19:10:58.075Z,52.63
2023-03-08T19:13:25.560Z,30.52
2023-03-08T19:15:53.006Z,24.05
2023-03-08T19:18:19.921Z,23.23
2023-03-08T19:20:47.300Z,23.63
2023-03-08T19:23:14.457Z,23.45
2023-03-08T19:26:00.711Z,21.35
2023-03-08T19:28:27.926Z,24.67
2023-03-08T19:30:55.878Z,28.35
2023-03-08T19:33:30.977Z,35.95
2023-03-08T19:35:59.001Z,41.75
2023-03-08T19:38:26.025Z,35.08
2023-03-08T19:40:53.347Z,38.35
2023-03-08T19:43:20.375Z,39.00
2023-03-08T19:45:51.027Z,34.70
2023-03-08T19:48:18.057Z,33.85
2023-03-08T19:50:46.377Z,44.47
2023-03-08T19:53:13.527Z,42.38
2023-03-08T19:55:51.821Z,42.72
2023-03-08T19:58:19.987Z,38.08
2023-03-08T20:00:47.325Z,44.67
2023-03-08T20:03:16.228Z,48.55
2023-03-08T20:05:45.731Z,38.15
2023-03-08T20:08:13.591Z,40.90
2023-03-08T20:10:41.422Z,39.65
2023-03-08T20:13:08.366Z,34.53
2023-03-08T20:15:36.024Z,39.30
2023-03-08T20:18:03.108Z,40.42
2023-03-08T20:20:30.390Z,33.90
2023-03-08T20:22:57.402Z,38.65
2023-03-08T20:25:24.927Z,35.78
2023-03-08T20:27:51.933Z,32.17
2023-03-08T20:30:19.574Z,35.30
2023-03-08T20:32:46.540Z,31.63
2023-03-08T20:35:15.007Z,39.10
2023-03-08T20:37:42.447Z,29.65
2023-03-08T20:40:12.170Z,34.17
2023-03-08T20:42:39.576Z,30.17
2023-03-08T20:45:07.719Z,32.45
2023-03-08T20:47:34.852Z,28.85
2023-03-08T20:50:02.109Z,28.65
2023-03-08T20:52:29.158Z,26.33
2023-03-08T20:54:56.699Z,22.10
2023-03-08T20:57:23.744Z,29.10
2023-03-08T20:59:51.341Z,28.52
2023-03-08T21:02:18.490Z,29.95
2023-03-08T21:04:46.072Z,30.55
2023-03-08T21:07:13.011Z,28.73
2023-03-08T21:09:40.621Z,23.35
2023-03-08T21:12:07.998Z,25.63
2023-03-08T21:14:35.602Z,27.10
2023-03-08T21:17:02.543Z,28.05
2023-03-08T21:19:29.853Z,26.55
2023-03-08T21:21:56.811Z,33.78
2023-03-08T21:24:24.404Z,36.53
2023-03-08T21:26:52.263Z,31.58
2023-03-08T21:29:21.495Z,30.77
2023-03-08T21:31:52.923Z,29.10
2023-03-08T21:34:21.232Z,32.30
2023-03-08T21:36:48.438Z,29.05
2023-03-08T21:39:16.343Z,32.25
2023-03-08T21:41:46.106Z,36.05
2023-03-08T21:44:17.016Z,30.98
2023-03-08T21:46:44.630Z,31.30
2023-03-08T21:49:24.209Z,30.17
2023-03-08T21:51:52.899Z,33.50
2023-03-08T21:54:20.877Z,34.65
2023-03-08T21:56:48.346Z,37.00
2023-03-08T21:59:19.498Z,31.75
2023-03-08T22:01:48.470Z,33.60
2023-03-08T22:04:16.690Z,37.17
2023-03-08T22:06:43.951Z,31.75
2023-03-08T22:09:11.666Z,36.80
2023-03-08T22:11:38.759Z,35.03
2023-03-08T22:14:06.836Z,40.90
2023-03-08T22:16:37.842Z,42.40
2023-03-08T22:19:05.675Z,36.83
2023-03-08T22:21:32.695Z,33.33
2023-03-08T22:24:02.184Z,31.20
2023-03-08T22:26:30.279Z,34.13
2023-03-08T22:28:58.450Z,32.97
2023-03-08T22:31:27.239Z,32.00
2023-03-08T22:33:54.706Z,32.65
2023-03-08T22:36:22.278Z,35.60
2023-03-08T22:38:49.536Z,35.13
2023-03-08T22:41:21.992Z,33.25
2023-03-08T22:43:50.431Z,29.17
2023-03-08T22:46:23.434Z,36.03
2023-03-08T22:48:52.765Z,34.22
2023-03-08T22:51:21.474Z,29.10
2023-03-08T22:53:49.605Z,36.47
2023-03-08T22:56:23.847Z,34.58
2023-03-08T22:58:51.421Z,30.60
2023-03-08T23:01:21.347Z,29.20
2023-03-08T23:03:49.844Z,27.33
2023-03-08T23:06:18.377Z,31.98
2023-03-08T23:08:47.037Z,30.92
2023-03-08T23:11:14.416Z,30.33
2023-03-08T23:13:41.906Z,30.20
2023-03-08T23:16:12.583Z,31.60
2023-03-08T23:18:40.705Z,25.75
2023-03-08T23:21:10.844Z,31.50
2023-03-08T23:23:38.434Z,37.70
2023-03-08T23:26:07.860Z,36.33
2023-03-08T23:28:36.447Z,36.58
2023-03-08T23:31:14.793Z,45.10
2023-03-08T23:33:43.065Z,34.85
2023-03-08T23:36:11.862Z,33.30
2023-03-08T23:38:39.600Z,35.53
2023-03-08T23:41:08.626Z,36.25
2023-03-08T23:43:37.414Z,35.45
2023-03-08T23:46:10.640Z,40.15
2023-03-08T23:48:38.181Z,35.50
2023-03-08T23:51:10.493Z,38.90
2023-03-08T23:53:37.786Z,45.58
2023-03-08T23:56:05.680Z,37.75
2023-03-08T23:58:33.678Z,38.50
